sensor_id;sensor_type;location;lat;lon;timestamp;P1;durP1;ratioP1;P2;durP2;ratioP2
28353;SDS011;15603;50.878;8.036;2022-07-23T00:00:19;12.23;;;6.68;;
28353;SDS011;15603;50.878;8.036;2022-07-23T00:02:46;12.48;;;7.45;;
28353;SDS011;15603;50.878;8.036;2022-07-23T00:05:14;12.35;;;6.85;;
28353;SDS011;15603;50.878;8.036;2022-07-23T00:07:41;8.77;;;6.75;;
28353;SDS011;15603;50.878;8.036;2022-07-23T00:10:08;15.27;;;6.93;;
28353;SDS011;15603;50.878;8.036;2022-07-23T00:12:36;9.55;;;6.32;;
28353;SDS011;15603;50.878;8.036;2022-07-23T00:15:16;11.98;;;7.20;;
28353;SDS011;15603;50.878;8.036;2022-07-23T00:17:43;10.95;;;6.55;;
28353;SDS011;15603;50.878;8.036;2022-07-23T00:20:10;17.25;;;8.13;;
28353;SDS011;15603;50.878;8.036;2022-07-23T00:22:45;10.25;;;6.60;;
28353;SDS011;15603;50.878;8.036;2022-07-23T00:25:13;9.75;;;6.68;;
28353;SDS011;15603;50.878;8.036;2022-07-23T00:27:58;10.77;;;6.57;;
28353;SDS011;15603;50.878;8.036;2022-07-23T00:30:26;10.77;;;7.18;;
28353;SDS011;15603;50.878;8.036;2022-07-23T00:32:57;10.52;;;7.07;;
28353;SDS011;15603;50.878;8.036;2022-07-23T00:35:26;8.90;;;6.50;;
28353;SDS011;15603;50.878;8.036;2022-07-23T00:37:55;11.38;;;7.53;;
28353;SDS011;15603;50.878;8.036;2022-07-23T00:40:23;9.63;;;6.85;;
28353;SDS011;15603;50.878;8.036;2022-07-23T00:42:51;11.48;;;6.88;;
28353;SDS011;15603;50.878;8.036;2022-07-23T00:45:18;16.08;;;7.80;;
28353;SDS011;15603;50.878;8.036;2022-07-23T00:47:46;25.75;;;8.98;;
28353;SDS011;15603;50.878;8.036;2022-07-23T00:50:14;14.55;;;7.80;;
28353;SDS011;15603;50.878;8.036;2022-07-23T00:52:41;10.50;;;7.05;;
28353;SDS011;15603;50.878;8.036;2022-07-23T00:55:09;10.98;;;6.70;;
28353;SDS011;15603;50.878;8.036;2022-07-23T00:57:37;11.57;;;7.20;;
28353;SDS011;15603;50.878;8.036;2022-07-23T01:00:06;11.23;;;6.80;;
28353;SDS011;15603;50.878;8.036;2022-07-23T01:02:37;12.55;;;6.97;;
28353;SDS011;15603;50.878;8.036;2022-07-23T01:05:04;11.05;;;7.28;;
28353;SDS011;15603;50.878;8.036;2022-07-23T01:07:33;16.70;;;6.63;;
28353;SDS011;15603;50.878;8.036;2022-07-23T01:10:00;14.40;;;7.50;;
28353;SDS011;15603;50.878;8.036;2022-07-23T01:12:29;17.67;;;8.23;;
28353;SDS011;15603;50.878;8.036;2022-07-23T01:14:57;13.05;;;7.57;;
28353;SDS011;15603;50.878;8.036;2022-07-23T01:17:28;16.00;;;8.25;;
28353;SDS011;15603;50.878;8.036;2022-07-23T01:19:55;17.00;;;7.68;;
28353;SDS011;15603;50.878;8.036;2022-07-23T01:22:22;14.88;;;7.72;;
28353;SDS011;15603;50.878;8.036;2022-07-23T01:24:50;13.15;;;8.40;;
28353;SDS011;15603;50.878;8.036;2022-07-23T01:27:22;11.90;;;7.60;;
28353;SDS011;15603;50.878;8.036;2022-07-23T01:29:54;14.25;;;7.50;;
28353;SDS011;15603;50.878;8.036;2022-07-23T01:32:23;11.18;;;7.32;;
28353;SDS011;15603;50.878;8.036;2022-07-23T01:34:50;15.52;;;8.60;;
28353;SDS011;15603;50.878;8.036;2022-07-23T01:37:17;15.48;;;8.60;;
28353;SDS011;15603;50.878;8.036;2022-07-23T01:39:46;16.17;;;8.05;;
28353;SDS011;15603;50.878;8.036;2022-07-23T01:42:13;12.85;;;7.50;;
28353;SDS011;15603;50.878;8.036;2022-07-23T01:44:41;16.58;;;8.57;;
28353;SDS011;15603;50.878;8.036;2022-07-23T01:47:14;12.43;;;8.00;;
28353;SDS011;15603;50.878;8.036;2022-07-23T01:49:41;16.80;;;8.60;;
28353;SDS011;15603;50.878;8.036;2022-07-23T01:52:37;15.20;;;7.72;;
28353;SDS011;15603;50.878;8.036;2022-07-23T01:55:06;15.13;;;7.97;;
28353;SDS011;15603;50.878;8.036;2022-07-23T01:57:34;15.02;;;8.00;;
28353;SDS011;15603;50.878;8.036;2022-07-23T02:00:01;15.15;;;9.35;;
28353;SDS011;15603;50.878;8.036;2022-07-23T02:02:38;15.40;;;8.30;;
28353;SDS011;15603;50.878;8.036;2022-07-23T02:05:06;17.05;;;9.68;;
28353;SDS011;15603;50.878;8.036;2022-07-23T02:07:33;16.02;;;9.05;;
28353;SDS011;15603;50.878;8.036;2022-07-23T02:10:01;14.30;;;8.90;;
28353;SDS011;15603;50.878;8.036;2022-07-23T02:12:28;14.05;;;8.48;;
28353;SDS011;15603;50.878;8.036;2022-07-23T02:14:55;20.55;;;10.65;;
28353;SDS011;15603;50.878;8.036;2022-07-23T02:17:24;18.02;;;9.15;;
28353;SDS011;15603;50.878;8.036;2022-07-23T02:19:51;16.85;;;8.25;;
28353;SDS011;15603;50.878;8.036;2022-07-23T02:22:18;15.40;;;8.60;;
28353;SDS011;15603;50.878;8.036;2022-07-23T02:24:48;17.85;;;8.77;;
28353;SDS011;15603;50.878;8.036;2022-07-23T02:27:16;22.00;;;8.73;;
28353;SDS011;15603;50.878;8.036;2022-07-23T02:29:43;13.45;;;8.30;;
28353;SDS011;15603;50.878;8.036;2022-07-23T02:32:13;16.35;;;8.68;;
28353;SDS011;15603;50.878;8.036;2022-07-23T02:34:40;19.38;;;7.78;;
28353;SDS011;15603;50.878;8.036;2022-07-23T02:37:07;15.43;;;7.72;;
28353;SDS011;15603;50.878;8.036;2022-07-23T02:39:35;16.30;;;8.07;;
28353;SDS011;15603;50.878;8.036;2022-07-23T02:42:03;14.80;;;8.32;;
28353;SDS011;15603;50.878;8.036;2022-07-23T02:44:32;14.73;;;7.90;;
28353;SDS011;15603;50.878;8.036;2022-07-23T02:46:59;15.90;;;7.15;;
28353;SDS011;15603;50.878;8.036;2022-07-23T02:49:26;13.85;;;8.57;;
28353;SDS011;15603;50.878;8.036;2022-07-23T02:51:53;13.07;;;7.38;;
28353;SDS011;15603;50.878;8.036;2022-07-23T02:54:21;11.70;;;6.93;;
28353;SDS011;15603;50.878;8.036;2022-07-23T02:56:48;16.65;;;7.28;;
28353;SDS011;15603;50.878;8.036;2022-07-23T02:59:17;11.07;;;7.22;;
28353;SDS011;15603;50.878;8.036;2022-07-23T03:01:46;13.60;;;7.65;;
28353;SDS011;15603;50.878;8.036;2022-07-23T03:04:13;15.30;;;7.13;;
28353;SDS011;15603;50.878;8.036;2022-07-23T03:06:42;16.05;;;6.88;;
28353;SDS011;15603;50.878;8.036;2022-07-23T03:09:09;12.25;;;7.32;;
28353;SDS011;15603;50.878;8.036;2022-07-23T03:11:38;11.30;;;7.82;;
28353;SDS011;15603;50.878;8.036;2022-07-23T03:14:05;13.18;;;7.38;;
28353;SDS011;15603;50.878;8.036;2022-07-23T03:16:35;13.40;;;6.80;;
28353;SDS011;15603;50.878;8.036;2022-07-23T03:19:02;12.95;;;6.95;;
28353;SDS011;15603;50.878;8.036;2022-07-23T03:21:32;11.00;;;6.75;;
28353;SDS011;15603;50.878;8.036;2022-07-23T03:24:01;18.60;;;8.15;;
28353;SDS011;15603;50.878;8.036;2022-07-23T03:26:29;13.85;;;6.40;;
28353;SDS011;15603;50.878;8.036;2022-07-23T03:28:56;12.00;;;5.97;;
28353;SDS011;15603;50.878;8.036;2022-07-23T03:31:25;9.27;;;5.40;;
28353;SDS011;15603;50.878;8.036;2022-07-23T03:33:52;10.82;;;6.43;;
28353;SDS011;15603;50.878;8.036;2022-07-23T03:36:19;12.50;;;6.85;;
28353;SDS011;15603;50.878;8.036;2022-07-23T03:38:49;9.40;;;5.93;;
28353;SDS011;15603;50.878;8.036;2022-07-23T03:41:18;12.10;;;5.85;;
28353;SDS011;15603;50.878;8.036;2022-07-23T03:43:45;8.88;;;6.25;;
28353;SDS011;15603;50.878;8.036;2022-07-23T03:46:13;8.90;;;5.47;;
28353;SDS011;15603;50.878;8.036;2022-07-23T03:48:40;8.73;;;5.22;;
28353;SDS011;15603;50.878;8.036;2022-07-23T03:51:07;11.63;;;6.65;;
28353;SDS011;15603;50.878;8.036;2022-07-23T03:53:34;13.65;;;6.13;;
28353;SDS011;15603;50.878;8.036;2022-07-23T03:56:01;12.43;;;6.25;;
28353;SDS011;15603;50.878;8.036;2022-07-23T03:58:29;11.25;;;6.32;;
28353;SDS011;15603;50.878;8.036;2022-07-23T04:00:56;10.68;;;5.82;;
28353;SDS011;15603;50.878;8.036;2022-07-23T04:03:24;12.68;;;5.85;;
28353;SDS011;15603;50.878;8.036;2022-07-23T04:05:52;10.80;;;6.10;;
28353;SDS011;15603;50.878;8.036;2022-07-23T04:08:20;13.00;;;6.13;;
28353;SDS011;15603;50.878;8.036;2022-07-23T04:10:50;14.57;;;6.63;;
28353;SDS011;15603;50.878;8.036;2022-07-23T04:13:18;11.50;;;6.10;;
28353;SDS011;15603;50.878;8.036;2022-07-23T04:15:46;14.40;;;6.47;;
28353;SDS011;15603;50.878;8.036;2022-07-23T04:18:15;12.52;;;5.95;;
28353;SDS011;15603;50.878;8.036;2022-07-23T04:20:52;12.57;;;5.32;;
28353;SDS011;15603;50.878;8.036;2022-07-23T04:23:19;12.98;;;6.00;;
28353;SDS011;15603;50.878;8.036;2022-07-23T04:25:47;11.32;;;6.20;;
28353;SDS011;15603;50.878;8.036;2022-07-23T04:28:14;11.68;;;6.32;;
28353;SDS011;15603;50.878;8.036;2022-07-23T04:30:41;10.38;;;6.43;;
28353;SDS011;15603;50.878;8.036;2022-07-23T04:33:10;14.00;;;6.53;;
28353;SDS011;15603;50.878;8.036;2022-07-23T04:35:38;17.92;;;6.40;;
28353;SDS011;15603;50.878;8.036;2022-07-23T04:38:12;11.10;;;6.57;;
28353;SDS011;15603;50.878;8.036;2022-07-23T04:40:40;10.18;;;5.97;;
28353;SDS011;15603;50.878;8.036;2022-07-23T04:43:07;11.98;;;6.72;;
28353;SDS011;15603;50.878;8.036;2022-07-23T04:45:40;8.77;;;5.57;;
28353;SDS011;15603;50.878;8.036;2022-07-23T04:48:09;8.18;;;5.82;;
28353;SDS011;15603;50.878;8.036;2022-07-23T04:50:37;9.68;;;5.47;;
28353;SDS011;15603;50.878;8.036;2022-07-23T04:53:04;11.25;;;5.97;;
28353;SDS011;15603;50.878;8.036;2022-07-23T04:55:32;10.75;;;6.30;;
28353;SDS011;15603;50.878;8.036;2022-07-23T04:57:59;10.80;;;5.60;;
28353;SDS011;15603;50.878;8.036;2022-07-23T05:00:26;7.63;;;5.43;;
28353;SDS011;15603;50.878;8.036;2022-07-23T05:02:53;9.85;;;5.85;;
28353;SDS011;15603;50.878;8.036;2022-07-23T05:05:21;11.80;;;5.97;;
28353;SDS011;15603;50.878;8.036;2022-07-23T05:07:49;10.57;;;5.82;;
28353;SDS011;15603;50.878;8.036;2022-07-23T05:10:17;17.27;;;5.95;;
28353;SDS011;15603;50.878;8.036;2022-07-23T05:12:44;10.90;;;5.97;;
28353;SDS011;15603;50.878;8.036;2022-07-23T05:15:11;9.10;;;5.75;;
28353;SDS011;15603;50.878;8.036;2022-07-23T05:17:38;10.90;;;6.30;;
28353;SDS011;15603;50.878;8.036;2022-07-23T05:20:11;9.68;;;5.75;;
28353;SDS011;15603;50.878;8.036;2022-07-23T05:22:39;9.40;;;5.72;;
28353;SDS011;15603;50.878;8.036;2022-07-23T05:25:07;10.65;;;6.18;;
28353;SDS011;15603;50.878;8.036;2022-07-23T05:27:35;12.27;;;6.50;;
28353;SDS011;15603;50.878;8.036;2022-07-23T05:30:02;13.10;;;6.40;;
28353;SDS011;15603;50.878;8.036;2022-07-23T05:32:32;9.73;;;5.93;;
28353;SDS011;15603;50.878;8.036;2022-07-23T05:35:09;15.27;;;5.97;;
28353;SDS011;15603;50.878;8.036;2022-07-23T05:37:41;13.85;;;6.65;;
28353;SDS011;15603;50.878;8.036;2022-07-23T05:40:09;11.70;;;5.90;;
28353;SDS011;15603;50.878;8.036;2022-07-23T05:42:38;13.93;;;6.32;;
28353;SDS011;15603;50.878;8.036;2022-07-23T05:45:06;10.32;;;5.80;;
28353;SDS011;15603;50.878;8.036;2022-07-23T05:47:41;11.40;;;5.80;;
28353;SDS011;15603;50.878;8.036;2022-07-23T05:50:11;9.65;;;5.60;;
28353;SDS011;15603;50.878;8.036;2022-07-23T05:52:49;11.55;;;5.68;;
28353;SDS011;15603;50.878;8.036;2022-07-23T05:55:41;12.32;;;5.82;;
28353;SDS011;15603;50.878;8.036;2022-07-23T05:58:08;12.57;;;5.85;;
28353;SDS011;15603;50.878;8.036;2022-07-23T06:00:35;10.82;;;5.75;;
28353;SDS011;15603;50.878;8.036;2022-07-23T06:03:02;7.82;;;5.20;;
28353;SDS011;15603;50.878;8.036;2022-07-23T06:05:31;10.85;;;5.97;;
28353;SDS011;15603;50.878;8.036;2022-07-23T06:07:58;12.82;;;6.35;;
28353;SDS011;15603;50.878;8.036;2022-07-23T06:10:26;14.02;;;5.38;;
28353;SDS011;15603;50.878;8.036;2022-07-23T06:12:55;9.75;;;5.70;;
28353;SDS011;15603;50.878;8.036;2022-07-23T06:15:28;17.02;;;5.43;;
28353;SDS011;15603;50.878;8.036;2022-07-23T06:17:57;9.00;;;4.93;;
28353;SDS011;15603;50.878;8.036;2022-07-23T06:20:24;8.18;;;5.13;;
28353;SDS011;15603;50.878;8.036;2022-07-23T06:22:51;6.80;;;4.40;;
28353;SDS011;15603;50.878;8.036;2022-07-23T06:25:18;8.25;;;4.55;;
28353;SDS011;15603;50.878;8.036;2022-07-23T06:27:47;8.45;;;5.18;;
28353;SDS011;15603;50.878;8.036;2022-07-23T06:30:15;9.18;;;5.05;;
28353;SDS011;15603;50.878;8.036;2022-07-23T06:32:45;10.07;;;4.30;;
28353;SDS011;15603;50.878;8.036;2022-07-23T06:35:14;10.40;;;5.05;;
28353;SDS011;15603;50.878;8.036;2022-07-23T06:37:41;12.68;;;5.38;;
28353;SDS011;15603;50.878;8.036;2022-07-23T06:40:09;8.88;;;4.18;;
28353;SDS011;15603;50.878;8.036;2022-07-23T06:42:37;8.07;;;5.13;;
28353;SDS011;15603;50.878;8.036;2022-07-23T06:45:06;11.55;;;4.40;;
28353;SDS011;15603;50.878;8.036;2022-07-23T06:47:35;11.93;;;4.22;;
28353;SDS011;15603;50.878;8.036;2022-07-23T06:50:03;8.13;;;5.63;;
28353;SDS011;15603;50.878;8.036;2022-07-23T06:52:30;10.93;;;5.00;;
28353;SDS011;15603;50.878;8.036;2022-07-23T06:54:58;11.65;;;4.93;;
28353;SDS011;15603;50.878;8.036;2022-07-23T06:57:25;8.27;;;5.28;;
28353;SDS011;15603;50.878;8.036;2022-07-23T06:59:52;10.88;;;4.97;;
28353;SDS011;15603;50.878;8.036;2022-07-23T07:02:21;12.07;;;4.22;;
28353;SDS011;15603;50.878;8.036;2022-07-23T07:04:49;7.32;;;4.70;;
28353;SDS011;15603;50.878;8.036;2022-07-23T07:07:16;11.02;;;4.65;;
28353;SDS011;15603;50.878;8.036;2022-07-23T07:09:43;10.27;;;4.88;;
28353;SDS011;15603;50.878;8.036;2022-07-23T07:12:14;9.27;;;5.35;;
28353;SDS011;15603;50.878;8.036;2022-07-23T07:14:41;14.32;;;5.88;;
28353;SDS011;15603;50.878;8.036;2022-07-23T07:17:08;8.75;;;5.60;;
28353;SDS011;15603;50.878;8.036;2022-07-23T07:19:37;9.45;;;5.00;;
28353;SDS011;15603;50.878;8.036;2022-07-23T07:22:04;11.05;;;4.65;;
28353;SDS011;15603;50.878;8.036;2022-07-23T07:24:31;8.32;;;4.75;;
28353;SDS011;15603;50.878;8.036;2022-07-23T07:27:04;14.93;;;5.15;;
28353;SDS011;15603;50.878;8.036;2022-07-23T07:29:31;14.38;;;5.03;;
28353;SDS011;15603;50.878;8.036;2022-07-23T07:31:58;11.45;;;5.15;;
28353;SDS011;15603;50.878;8.036;2022-07-23T07:34:25;13.82;;;4.10;;
28353;SDS011;15603;50.878;8.036;2022-07-23T07:36:52;5.85;;;3.90;;
28353;SDS011;15603;50.878;8.036;2022-07-23T07:39:19;7.20;;;3.90;;
28353;SDS011;15603;50.878;8.036;2022-07-23T07:41:47;5.93;;;3.63;;
28353;SDS011;15603;50.878;8.036;2022-07-23T07:44:14;5.70;;;3.88;;
28353;SDS011;15603;50.878;8.036;2022-07-23T07:46:41;7.47;;;4.07;;
28353;SDS011;15603;50.878;8.036;2022-07-23T07:49:08;7.47;;;3.97;;
28353;SDS011;15603;50.878;8.036;2022-07-23T07:51:42;6.95;;;3.17;;
28353;SDS011;15603;50.878;8.036;2022-07-23T07:54:14;10.40;;;4.97;;
28353;SDS011;15603;50.878;8.036;2022-07-23T07:56:41;6.80;;;2.97;;
28353;SDS011;15603;50.878;8.036;2022-07-23T07:59:08;5.70;;;3.00;;
28353;SDS011;15603;50.878;8.036;2022-07-23T08:01:36;9.82;;;3.00;;
28353;SDS011;15603;50.878;8.036;2022-07-23T08:04:04;4.55;;;2.42;;
28353;SDS011;15603;50.878;8.036;2022-07-23T08:06:32;3.80;;;1.90;;
28353;SDS011;15603;50.878;8.036;2022-07-23T08:08:59;5.03;;;2.60;;
28353;SDS011;15603;50.878;8.036;2022-07-23T08:11:26;6.60;;;2.45;;
28353;SDS011;15603;50.878;8.036;2022-07-23T08:13:53;6.68;;;2.40;;
28353;SDS011;15603;50.878;8.036;2022-07-23T08:16:20;4.30;;;2.28;;
28353;SDS011;15603;50.878;8.036;2022-07-23T08:18:47;9.55;;;2.78;;
28353;SDS011;15603;50.878;8.036;2022-07-23T08:21:14;4.20;;;1.80;;
28353;SDS011;15603;50.878;8.036;2022-07-23T08:23:41;3.63;;;2.03;;
28353;SDS011;15603;50.878;8.036;2022-07-23T08:26:08;7.40;;;2.00;;
28353;SDS011;15603;50.878;8.036;2022-07-23T08:28:35;5.68;;;1.92;;
28353;SDS011;15603;50.878;8.036;2022-07-23T08:31:02;2.85;;;1.90;;
28353;SDS011;15603;50.878;8.036;2022-07-23T08:33:32;8.40;;;2.00;;
28353;SDS011;15603;50.878;8.036;2022-07-23T08:36:01;2.50;;;1.70;;
28353;SDS011;15603;50.878;8.036;2022-07-23T08:38:30;6.38;;;2.67;;
28353;SDS011;15603;50.878;8.036;2022-07-23T08:40:58;3.33;;;1.90;;
28353;SDS011;15603;50.878;8.036;2022-07-23T08:43:29;2.90;;;1.23;;
28353;SDS011;15603;50.878;8.036;2022-07-23T08:45:58;5.35;;;1.50;;
28353;SDS011;15603;50.878;8.036;2022-07-23T08:48:28;4.30;;;1.60;;
28353;SDS011;15603;50.878;8.036;2022-07-23T08:51:00;4.35;;;1.75;;
28353;SDS011;15603;50.878;8.036;2022-07-23T08:53:29;2.60;;;1.45;;
28353;SDS011;15603;50.878;8.036;2022-07-23T08:55:58;5.90;;;1.70;;
28353;SDS011;15603;50.878;8.036;2022-07-23T08:58:30;3.40;;;1.40;;
28353;SDS011;15603;50.878;8.036;2022-07-23T09:00:58;2.75;;;1.45;;
28353;SDS011;15603;50.878;8.036;2022-07-23T09:03:28;6.97;;;2.55;;
28353;SDS011;15603;50.878;8.036;2022-07-23T09:05:57;3.17;;;1.35;;
28353;SDS011;15603;50.878;8.036;2022-07-23T09:08:26;1.60;;;1.20;;
28353;SDS011;15603;50.878;8.036;2022-07-23T09:11:02;4.10;;;0.95;;
28353;SDS011;15603;50.878;8.036;2022-07-23T09:13:37;2.92;;;1.35;;
28353;SDS011;15603;50.878;8.036;2022-07-23T09:16:12;3.75;;;1.65;;
28353;SDS011;15603;50.878;8.036;2022-07-23T09:18:54;1.83;;;1.13;;
28353;SDS011;15603;50.878;8.036;2022-07-23T09:21:26;2.88;;;1.27;;
28353;SDS011;15603;50.878;8.036;2022-07-23T09:23:56;3.75;;;1.48;;
28353;SDS011;15603;50.878;8.036;2022-07-23T09:29:03;2.42;;;1.60;;
28353;SDS011;15603;50.878;8.036;2022-07-23T09:31:44;4.63;;;1.60;;
28353;SDS011;15603;50.878;8.036;2022-07-23T09:36:45;4.43;;;1.17;;
28353;SDS011;15603;50.878;8.036;2022-07-23T09:39:15;3.33;;;1.35;;
28353;SDS011;15603;50.878;8.036;2022-07-23T09:41:48;2.33;;;1.60;;
28353;SDS011;15603;50.878;8.036;2022-07-23T09:44:16;2.67;;;1.00;;
28353;SDS011;15603;50.878;8.036;2022-07-23T09:46:52;2.28;;;1.25;;
28353;SDS011;15603;50.878;8.036;2022-07-23T09:49:25;2.00;;;1.15;;
28353;SDS011;15603;50.878;8.036;2022-07-23T09:51:56;2.42;;;1.40;;
28353;SDS011;15603;50.878;8.036;2022-07-23T09:54:35;2.45;;;0.93;;
28353;SDS011;15603;50.878;8.036;2022-07-23T09:57:11;2.47;;;1.20;;
28353;SDS011;15603;50.878;8.036;2022-07-23T09:59:43;2.17;;;1.40;;
28353;SDS011;15603;50.878;8.036;2022-07-23T10:02:13;1.67;;;0.95;;
28353;SDS011;15603;50.878;8.036;2022-07-23T10:05:00;2.72;;;1.55;;
28353;SDS011;15603;50.878;8.036;2022-07-23T10:07:49;4.30;;;1.50;;
28353;SDS011;15603;50.878;8.036;2022-07-23T10:10:42;2.40;;;1.30;;
28353;SDS011;15603;50.878;8.036;2022-07-23T10:13:28;2.55;;;0.93;;
28353;SDS011;15603;50.878;8.036;2022-07-23T10:15:55;3.35;;;1.05;;
28353;SDS011;15603;50.878;8.036;2022-07-23T10:18:22;2.55;;;1.15;;
28353;SDS011;15603;50.878;8.036;2022-07-23T10:20:50;1.20;;;1.05;;
28353;SDS011;15603;50.878;8.036;2022-07-23T10:23:28;4.38;;;1.58;;
28353;SDS011;15603;50.878;8.036;2022-07-23T10:26:14;3.30;;;1.27;;
28353;SDS011;15603;50.878;8.036;2022-07-23T10:28:56;4.05;;;1.20;;
28353;SDS011;15603;50.878;8.036;2022-07-23T10:37:28;2.60;;;1.25;;
28353;SDS011;15603;50.878;8.036;2022-07-23T10:40:15;2.15;;;1.13;;
28353;SDS011;15603;50.878;8.036;2022-07-23T10:42:44;3.53;;;1.25;;
28353;SDS011;15603;50.878;8.036;2022-07-23T10:47:54;4.47;;;1.70;;
28353;SDS011;15603;50.878;8.036;2022-07-23T10:50:23;2.90;;;1.40;;
28353;SDS011;15603;50.878;8.036;2022-07-23T10:58:11;2.03;;;0.90;;
28353;SDS011;15603;50.878;8.036;2022-07-23T11:00:46;2.33;;;1.45;;
28353;SDS011;15603;50.878;8.036;2022-07-23T11:03:30;2.83;;;1.67;;
28353;SDS011;15603;50.878;8.036;2022-07-23T11:05:59;3.28;;;1.23;;
28353;SDS011;15603;50.878;8.036;2022-07-23T11:08:26;3.17;;;1.83;;
28353;SDS011;15603;50.878;8.036;2022-07-23T11:10:55;4.10;;;1.40;;
28353;SDS011;15603;50.878;8.036;2022-07-23T11:13:39;2.73;;;1.77;;
28353;SDS011;15603;50.878;8.036;2022-07-23T11:16:15;2.47;;;1.60;;
28353;SDS011;15603;50.878;8.036;2022-07-23T11:31:53;5.57;;;1.45;;
28353;SDS011;15603;50.878;8.036;2022-07-23T11:34:40;4.38;;;1.60;;
28353;SDS011;15603;50.878;8.036;2022-07-23T11:37:28;4.97;;;1.40;;
28353;SDS011;15603;50.878;8.036;2022-07-23T11:40:07;2.28;;;1.27;;
28353;SDS011;15603;50.878;8.036;2022-07-23T11:42:39;2.50;;;1.85;;
28353;SDS011;15603;50.878;8.036;2022-07-23T11:45:24;1.40;;;1.20;;
28353;SDS011;15603;50.878;8.036;2022-07-23T11:47:56;3.13;;;1.65;;
28353;SDS011;15603;50.878;8.036;2022-07-23T11:50:24;3.50;;;1.33;;
28353;SDS011;15603;50.878;8.036;2022-07-23T11:52:53;3.95;;;1.50;;
28353;SDS011;15603;50.878;8.036;2022-07-23T11:55:21;5.97;;;1.60;;
28353;SDS011;15603;50.878;8.036;2022-07-23T11:57:50;2.05;;;1.42;;
28353;SDS011;15603;50.878;8.036;2022-07-23T12:00:20;4.45;;;1.85;;
28353;SDS011;15603;50.878;8.036;2022-07-23T12:02:57;3.55;;;1.70;;
28353;SDS011;15603;50.878;8.036;2022-07-23T12:05:29;1.92;;;1.38;;
28353;SDS011;15603;50.878;8.036;2022-07-23T12:07:59;3.10;;;1.70;;
28353;SDS011;15603;50.878;8.036;2022-07-23T12:10:38;2.55;;;1.17;;
28353;SDS011;15603;50.878;8.036;2022-07-23T12:15:42;1.47;;;1.10;;
28353;SDS011;15603;50.878;8.036;2022-07-23T12:18:12;4.28;;;1.63;;
28353;SDS011;15603;50.878;8.036;2022-07-23T12:20:42;4.20;;;1.70;;
28353;SDS011;15603;50.878;8.036;2022-07-23T12:23:12;3.13;;;2.20;;
28353;SDS011;15603;50.878;8.036;2022-07-23T12:25:47;2.75;;;1.20;;
28353;SDS011;15603;50.878;8.036;2022-07-23T12:28:19;4.53;;;1.40;;
28353;SDS011;15603;50.878;8.036;2022-07-23T12:30:49;3.42;;;1.58;;
28353;SDS011;15603;50.878;8.036;2022-07-23T12:33:21;3.30;;;1.33;;
28353;SDS011;15603;50.878;8.036;2022-07-23T12:35:50;3.42;;;1.70;;
28353;SDS011;15603;50.878;8.036;2022-07-23T12:38:21;3.03;;;1.80;;
28353;SDS011;15603;50.878;8.036;2022-07-23T12:40:50;4.25;;;1.95;;
28353;SDS011;15603;50.878;8.036;2022-07-23T12:43:20;4.40;;;1.73;;
28353;SDS011;15603;50.878;8.036;2022-07-23T12:46:08;3.25;;;1.90;;
28353;SDS011;15603;50.878;8.036;2022-07-23T12:48:38;3.00;;;1.80;;
28353;SDS011;15603;50.878;8.036;2022-07-23T12:51:19;4.40;;;1.95;;
28353;SDS011;15603;50.878;8.036;2022-07-23T12:53:58;4.18;;;1.77;;
28353;SDS011;15603;50.878;8.036;2022-07-23T12:56:27;3.65;;;1.77;;
28353;SDS011;15603;50.878;8.036;2022-07-23T12:58:58;5.43;;;1.70;;
28353;SDS011;15603;50.878;8.036;2022-07-23T13:01:35;4.15;;;1.80;;
28353;SDS011;15603;50.878;8.036;2022-07-23T13:06:52;2.88;;;1.75;;
28353;SDS011;15603;50.878;8.036;2022-07-23T13:09:26;2.45;;;1.63;;
28353;SDS011;15603;50.878;8.036;2022-07-23T13:11:59;3.25;;;1.75;;
28353;SDS011;15603;50.878;8.036;2022-07-23T13:14:27;4.25;;;2.03;;
28353;SDS011;15603;50.878;8.036;2022-07-23T13:16:55;4.43;;;1.88;;
28353;SDS011;15603;50.878;8.036;2022-07-23T13:19:25;7.00;;;2.10;;
28353;SDS011;15603;50.878;8.036;2022-07-23T13:21:54;6.25;;;2.47;;
28353;SDS011;15603;50.878;8.036;2022-07-23T13:24:21;5.25;;;2.03;;
28353;SDS011;15603;50.878;8.036;2022-07-23T13:26:48;3.72;;;1.60;;
28353;SDS011;15603;50.878;8.036;2022-07-23T13:29:18;2.60;;;1.65;;
28353;SDS011;15603;50.878;8.036;2022-07-23T13:31:46;7.38;;;1.70;;
28353;SDS011;15603;50.878;8.036;2022-07-23T13:34:15;2.60;;;1.75;;
28353;SDS011;15603;50.878;8.036;2022-07-23T13:36:42;3.83;;;1.75;;
28353;SDS011;15603;50.878;8.036;2022-07-23T13:39:10;5.43;;;2.65;;
28353;SDS011;15603;50.878;8.036;2022-07-23T13:41:37;3.88;;;2.22;;
28353;SDS011;15603;50.878;8.036;2022-07-23T13:44:05;5.63;;;2.03;;
28353;SDS011;15603;50.878;8.036;2022-07-23T13:46:34;5.82;;;2.13;;
28353;SDS011;15603;50.878;8.036;2022-07-23T13:49:02;5.47;;;2.00;;
28353;SDS011;15603;50.878;8.036;2022-07-23T13:51:32;2.72;;;1.85;;
28353;SDS011;15603;50.878;8.036;2022-07-23T13:53:59;3.90;;;1.95;;
28353;SDS011;15603;50.878;8.036;2022-07-23T13:56:27;4.57;;;2.40;;
28353;SDS011;15603;50.878;8.036;2022-07-23T13:58:54;4.82;;;1.98;;
28353;SDS011;15603;50.878;8.036;2022-07-23T14:01:21;4.05;;;2.33;;
28353;SDS011;15603;50.878;8.036;2022-07-23T14:03:48;3.40;;;1.88;;
28353;SDS011;15603;50.878;8.036;2022-07-23T14:06:15;3.45;;;2.58;;
28353;SDS011;15603;50.878;8.036;2022-07-23T14:08:43;8.88;;;2.58;;
28353;SDS011;15603;50.878;8.036;2022-07-23T14:11:11;4.35;;;2.35;;
28353;SDS011;15603;50.878;8.036;2022-07-23T14:13:39;5.82;;;2.78;;
28353;SDS011;15603;50.878;8.036;2022-07-23T14:16:07;9.35;;;2.60;;
28353;SDS011;15603;50.878;8.036;2022-07-23T14:18:35;4.15;;;2.58;;
28353;SDS011;15603;50.878;8.036;2022-07-23T14:21:03;8.00;;;2.45;;
28353;SDS011;15603;50.878;8.036;2022-07-23T14:23:32;4.28;;;2.30;;
28353;SDS011;15603;50.878;8.036;2022-07-23T14:26:00;4.35;;;2.60;;
28353;SDS011;15603;50.878;8.036;2022-07-23T14:28:32;3.20;;;2.22;;
28353;SDS011;15603;50.878;8.036;2022-07-23T14:31:02;5.15;;;2.75;;
28353;SDS011;15603;50.878;8.036;2022-07-23T14:33:29;6.22;;;2.22;;
28353;SDS011;15603;50.878;8.036;2022-07-23T14:35:56;12.27;;;2.90;;
28353;SDS011;15603;50.878;8.036;2022-07-23T14:38:26;5.45;;;2.55;;
28353;SDS011;15603;50.878;8.036;2022-07-23T14:40:53;6.15;;;3.38;;
28353;SDS011;15603;50.878;8.036;2022-07-23T14:43:21;3.15;;;2.22;;
28353;SDS011;15603;50.878;8.036;2022-07-23T14:45:49;3.35;;;2.03;;
28353;SDS011;15603;50.878;8.036;2022-07-23T14:48:16;3.33;;;2.22;;
28353;SDS011;15603;50.878;8.036;2022-07-23T14:50:43;6.90;;;2.47;;
28353;SDS011;15603;50.878;8.036;2022-07-23T14:53:11;3.67;;;2.10;;
28353;SDS011;15603;50.878;8.036;2022-07-23T14:55:38;3.45;;;2.55;;
28353;SDS011;15603;50.878;8.036;2022-07-23T14:58:06;6.60;;;2.67;;
28353;SDS011;15603;50.878;8.036;2022-07-23T15:00:33;4.03;;;2.38;;
28353;SDS011;15603;50.878;8.036;2022-07-23T15:03:00;5.50;;;2.88;;
28353;SDS011;15603;50.878;8.036;2022-07-23T15:05:28;5.55;;;2.45;;
28353;SDS011;15603;50.878;8.036;2022-07-23T15:07:56;5.55;;;2.95;;
28353;SDS011;15603;50.878;8.036;2022-07-23T15:10:23;5.78;;;2.72;;
28353;SDS011;15603;50.878;8.036;2022-07-23T15:12:50;2.90;;;2.42;;
28353;SDS011;15603;50.878;8.036;2022-07-23T15:15:17;4.30;;;2.80;;
28353;SDS011;15603;50.878;8.036;2022-07-23T15:17:44;4.22;;;2.53;;
28353;SDS011;15603;50.878;8.036;2022-07-23T15:20:11;5.55;;;2.92;;
28353;SDS011;15603;50.878;8.036;2022-07-23T15:22:43;4.10;;;2.45;;
28353;SDS011;15603;50.878;8.036;2022-07-23T15:25:11;5.60;;;3.20;;
28353;SDS011;15603;50.878;8.036;2022-07-23T15:27:39;6.88;;;2.90;;
28353;SDS011;15603;50.878;8.036;2022-07-23T15:30:06;7.20;;;2.50;;
28353;SDS011;15603;50.878;8.036;2022-07-23T15:32:34;4.50;;;2.70;;
28353;SDS011;15603;50.878;8.036;2022-07-23T15:35:01;3.22;;;2.45;;